Time;durP1;ratioP1;P1;durP2;ratioP2;P2;SDS_P1;SDS_P2;PMS_P1;PMS_P2;Temp;Humidity;BMP_temperature;BMP_pressure;BME280_temperature;BME280_humidity;BME280_pressure;Samples;Min_cycle;Max_cycle;Signal;HPM_P1;HPM_P2
2024/02/20 00:00:28;;;;;;;59.25;9.07;;;6.80;99.90;;;;;;5123934;27;20053;-64
2024/02/20 00:02:54;;;;;;;56.28;8.82;;;6.70;99.90;;;;;;5122929;27;20035;-66
2024/02/20 00:05:20;;;;;;;48.25;8.75;;;6.70;99.90;;;;;;5122386;27;20050;-65
2024/02/20 00:07:45;;;;;;;60.28;7.88;;;6.70;99.90;;;;;;5116872;27;20027;-65
2024/02/20 00:10:12;;;;;;;50.72;7.50;;;6.70;99.90;;;;;;5119660;27;20055;-66
2024/02/20 00:12:38;;;;;;;59.05;8.85;;;6.60;99.90;;;;;;5111298;27;20082;-66
2024/02/20 00:15:08;;;;;;;40.38;6.97;;;6.60;99.90;;;;;;5116490;27;20066;-65
2024/02/20 00:17:37;;;;;;;57.33;8.50;;;6.60;99.90;;;;;;5123643;27;20490;-65
2024/02/20 00:20:05;;;;;;;;;;;6.60;99.90;;;;;;5123715;27;20039;-66
2024/02/20 00:22:32;;;;;;;63.70;6.50;;;6.50;99.90;;;;;;5120258;27;20366;-66
2024/02/20 00:24:57;;;;;;;59.28;7.55;;;6.60;99.90;;;;;;5110465;27;20055;-65
2024/02/20 00:27:23;;;;;;;67.32;8.00;;;6.60;99.90;;;;;;5119914;27;20466;-64
2024/02/20 00:29:49;;;;;;;66.57;8.63;;;6.60;99.90;;;;;;5121596;27;20035;-66
2024/02/20 00:32:21;;;;;;;59.60;8.52;;;6.60;99.90;;;;;;5117104;27;20037;-65
2024/02/20 00:34:47;;;;;;;53.85;9.10;;;6.50;99.90;;;;;;5117829;27;20452;-66
2024/02/20 00:37:14;;;;;;;64.43;7.95;;;6.60;99.90;;;;;;5117694;27;20035;-65
2024/02/20 00:39:40;;;;;;;57.58;7.95;;;6.60;99.90;;;;;;5112478;27;20039;-66
2024/02/20 00:42:07;;;;;;;67.65;8.95;;;6.50;99.90;;;;;;5120167;27;20516;-65
2024/02/20 00:44:33;;;;;;;48.45;7.97;;;6.60;99.90;;;;;;5112084;27;20076;-65
2024/02/20 00:46:59;;;;;;;60.35;7.50;;;6.60;99.90;;;;;;5112407;27;20039;-65
2024/02/20 00:49:25;;;;;;;53.45;8.23;;;6.50;99.90;;;;;;5115283;27;20737;-65
2024/02/20 00:51:51;;;;;;;55.63;8.93;;;6.60;99.90;;;;;;5121637;27;20047;-65
2024/02/20 00:54:17;;;;;;;49.45;7.07;;;6.60;99.90;;;;;;5110176;27;20040;-66
2024/02/20 00:56:44;;;;;;;56.90;8.45;;;6.60;99.90;;;;;;5118902;27;20086;-66
2024/02/20 00:59:11;;;;;;;53.28;7.80;;;6.50;99.90;;;;;;5120293;27;20508;-64
2024/02/20 01:01:37;;;;;;;50.40;6.47;;;6.60;99.90;;;;;;5126278;27;20362;-66
2024/02/20 01:04:04;;;;;;;49.15;7.85;;;6.60;99.90;;;;;;5110875;27;20548;-66
2024/02/20 01:06:31;;;;;;;70.57;8.23;;;6.70;99.90;;;;;;5118755;27;20031;-65
2024/02/20 01:08:57;;;;;;;49.30;7.68;;;6.70;99.90;;;;;;5116982;27;20540;-65
2024/02/20 01:11:22;;;;;;;58.03;8.80;;;6.60;99.90;;;;;;5108735;27;20123;-65
2024/02/20 01:13:48;;;;;;;43.95;6.95;;;6.60;99.90;;;;;;5115209;27;20039;-64
2024/02/20 01:16:14;;;;;;;57.05;7.45;;;6.60;99.90;;;;;;5112471;27;20118;-64
2024/02/20 01:18:41;;;;;;;52.80;7.85;;;6.60;99.90;;;;;;5112307;27;20036;-64
2024/02/20 01:21:07;;;;;;;58.58;10.60;;;6.70;99.90;;;;;;5116374;27;20043;-66
2024/02/20 01:23:33;;;;;;;41.22;6.38;;;6.60;99.90;;;;;;5114807;27;20195;-64
2024/02/20 01:25:59;;;;;;;54.60;8.18;;;6.70;99.90;;;;;;5116300;27;20114;-65
2024/02/20 01:28:25;;;;;;;58.88;8.15;;;6.70;99.90;;;;;;5113506;27;20038;-65
2024/02/20 01:30:51;;;;;;;49.05;6.93;;;6.70;99.90;;;;;;5109434;27;20047;-64
2024/02/20 01:33:16;;;;;;;46.65;8.60;;;6.70;99.90;;;;;;5120560;27;20043;-65
2024/02/20 01:35:43;;;;;;;43.15;6.68;;;6.70;99.90;;;;;;5122287;27;20062;-65
2024/02/20 01:38:10;;;;;;;49.08;8.60;;;6.70;99.90;;;;;;5112936;27;20120;-65
2024/02/20 01:40:37;;;;;;;49.97;7.10;;;6.70;99.90;;;;;;5115221;27;20398;-65
2024/02/20 01:43:05;;;;;;;38.70;7.03;;;6.70;99.90;;;;;;5120259;27;20089;-65
2024/02/20 01:45:31;;;;;;;50.83;7.57;;;6.70;99.90;;;;;;5116339;27;20081;-65
2024/02/20 01:48:00;;;;;;;56.10;7.70;;;6.70;99.90;;;;;;5124183;27;20498;-65
2024/02/20 01:50:27;;;;;;;48.97;7.70;;;6.80;99.90;;;;;;5101562;27;20044;-65
2024/02/20 01:52:53;;;;;;;44.13;6.82;;;6.70;99.90;;;;;;5118775;27;20066;-65
2024/02/20 01:55:20;;;;;;;53.58;7.57;;;6.60;99.90;;;;;;5115973;27;20035;-64
2024/02/20 01:57:47;;;;;;;45.88;8.63;;;6.70;99.90;;;;;;5111210;27;20108;-66
2024/02/20 02:00:13;;;;;;;45.40;6.45;;;6.80;99.90;;;;;;5113203;27;20039;-65
2024/02/20 02:02:38;;;;;;;42.45;6.43;;;6.70;99.90;;;;;;5103743;27;20191;-65
2024/02/20 02:05:05;;;;;;;45.33;7.88;;;6.70;99.90;;;;;;5111349;27;20055;-64
2024/02/20 02:07:31;;;;;;;44.38;6.97;;;6.70;99.90;;;;;;5116186;27;20039;-64
2024/02/20 02:09:56;;;;;;;59.53;6.47;;;6.70;99.90;;;;;;5113918;27;20101;-65
2024/02/20 02:12:22;;;;;;;46.97;6.43;;;6.80;99.90;;;;;;5113520;27;20150;-64
2024/02/20 02:14:48;;;;;;;39.50;6.10;;;6.60;99.90;;;;;;5112666;27;20389;-65
2024/02/20 02:17:14;;;;;;;48.75;6.00;;;6.70;99.90;;;;;;5112855;27;20054;-65
2024/02/20 02:19:41;;;;;;;48.38;6.55;;;6.80;99.90;;;;;;5111865;27;20038;-64
2024/02/20 02:22:08;;;;;;;38.35;7.32;;;6.80;99.90;;;;;;5111496;27;20051;-65
2024/02/20 02:24:34;;;;;;;43.90;6.32;;;6.70;99.90;;;;;;5103561;27;20529;-65
2024/02/20 02:27:04;;;;;;;51.75;6.30;;;6.70;99.90;;;;;;5111499;27;20038;-65
2024/02/20 02:29:31;;;;;;;37.78;5.45;;;6.60;99.90;;;;;;5120138;27;20035;-64
2024/02/20 02:31:57;;;;;;;37.30;6.13;;;6.60;99.90;;;;;;5111701;27;20224;-65
2024/02/20 02:34:29;;;;;;;51.03;6.88;;;6.80;99.90;;;;;;5117210;27;20028;-65
2024/02/20 02:36:56;;;;;;;45.28;6.30;;;6.70;99.90;;;;;;5111100;27;20384;-65
2024/02/20 02:39:23;;;;;;;37.17;6.45;;;6.80;99.90;;;;;;5123584;27;20118;-65
2024/02/20 02:41:50;;;;;;;47.58;5.85;;;6.70;99.90;;;;;;5120899;27;20106;-64
2024/02/20 02:44:16;;;;;;;40.08;6.45;;;6.70;99.90;;;;;;5118876;28;20374;-66
2024/02/20 02:46:42;;;;;;;51.28;8.27;;;6.80;99.90;;;;;;5116352;27;20128;-65
2024/02/20 02:49:07;;;;;;;41.83;7.00;;;6.70;99.90;;;;;;5118080;28;20039;-66
2024/02/20 02:51:34;;;;;;;44.25;5.35;;;6.80;99.90;;;;;;5118745;28;20037;-65
2024/02/20 02:54:00;;;;;;;41.25;5.70;;;6.80;99.90;;;;;;5118653;28;20130;-64
2024/02/20 02:56:28;;;;;;;40.75;5.10;;;6.70;99.90;;;;;;5117372;28;20380;-65
2024/02/20 02:58:54;;;;;;;45.25;7.10;;;6.80;99.90;;;;;;5111380;27;20038;-64
2024/02/20 03:01:21;;;;;;;40.08;6.18;;;6.70;99.90;;;;;;5111521;27;20556;-66
2024/02/20 03:03:47;;;;;;;51.67;7.80;;;6.70;99.90;;;;;;5117514;28;20042;-66
2024/02/20 03:06:13;;;;;;;38.72;5.68;;;6.70;99.90;;;;;;5113796;27;20043;-65
2024/02/20 03:08:44;;;;;;;43.50;5.72;;;6.70;99.90;;;;;;5115984;27;20057;-64
2024/02/20 03:11:11;;;;;;;48.13;6.32;;;6.70;99.90;;;;;;5116542;28;20528;-65
2024/02/20 03:13:37;;;;;;;45.65;6.13;;;6.60;99.90;;;;;;5112989;28;20047;-65
2024/02/20 03:16:06;;;;;;;39.20;5.80;;;6.70;99.90;;;;;;5118704;27;20042;-65
2024/02/20 03:18:39;;;;;;;38.92;5.20;;;6.70;99.90;;;;;;5114978;27;20110;-65
2024/02/20 03:21:08;;;;;;;33.40;5.47;;;6.60;99.90;;;;;;5118428;27;20560;-64
2024/02/20 03:23:35;;;;;;;38.75;6.00;;;6.70;99.90;;;;;;5109828;28;20121;-64
2024/02/20 03:26:03;;;;;;;44.50;6.00;;;6.50;99.90;;;;;;5118505;27;20072;-65
2024/02/20 03:28:32;;;;;;;37.88;6.05;;;6.70;99.90;;;;;;5108833;28;20648;-65
2024/02/20 03:30:58;;;;;;;35.67;5.65;;;6.60;99.90;;;;;;5118957;27;20139;-64
2024/02/20 03:33:26;;;;;;;39.60;6.75;;;6.60;99.90;;;;;;5110724;27;20057;-65
2024/02/20 03:35:53;;;;;;;40.08;5.57;;;6.60;99.90;;;;;;5126842;27;20379;-64
2024/02/20 03:38:20;;;;;;;45.80;5.40;;;6.60;99.90;;;;;;5119745;27;20042;-65
2024/02/20 03:40:45;;;;;;;35.80;4.90;;;6.50;99.90;;;;;;5121699;28;20035;-65
2024/02/20 03:43:11;;;;;;;34.90;5.03;;;6.50;99.90;;;;;;5113646;27;20043;-65
2024/02/20 03:45:37;;;;;;;38.28;5.82;;;6.50;99.90;;;;;;5112447;27;20043;-65
2024/02/20 03:48:03;;;;;;;39.65;5.38;;;6.50;99.90;;;;;;5120816;27;20043;-64
2024/02/20 03:50:28;;;;;;;32.60;5.78;;;6.40;99.90;;;;;;5123621;27;20479;-65
2024/02/20 03:52:54;;;;;;;47.10;6.53;;;6.50;99.90;;;;;;5115667;27;20039;-64
2024/02/20 03:55:20;;;;;;;36.58;4.93;;;6.40;99.90;;;;;;5114587;27;20484;-65
2024/02/20 03:57:47;;;;;;;37.22;4.93;;;6.50;99.90;;;;;;5117115;27;20470;-64
2024/02/20 04:00:14;;;;;;;32.55;4.63;;;6.40;99.90;;;;;;5111129;27;20585;-65
2024/02/20 04:02:42;;;;;;;38.20;5.50;;;6.40;99.90;;;;;;5123931;27;20035;-65
2024/02/20 04:05:12;;;;;;;35.63;5.47;;;6.50;99.90;;;;;;5102045;27;20486;-64
2024/02/20 04:07:41;;;;;;;34.35;5.10;;;6.40;99.90;;;;;;5124820;27;20043;-65
2024/02/20 04:10:12;;;;;;;38.03;4.70;;;6.40;99.90;;;;;;5122619;27;20051;-64
2024/02/20 04:12:39;;;;;;;29.85;5.10;;;6.50;99.90;;;;;;5118796;27;20087;-64
2024/02/20 04:15:09;;;;;;;27.25;4.72;;;6.40;99.90;;;;;;5114825;27;20209;-64
2024/02/20 04:17:35;;;;;;;39.60;5.47;;;6.40;99.90;;;;;;5115368;27;20120;-64
2024/02/20 04:20:04;;;;;;;40.22;5.05;;;6.40;99.90;;;;;;5114679;27;20475;-65
2024/02/20 04:22:33;;;;;;;;;;;6.50;99.90;;;;;;5121319;27;20040;-65
2024/02/20 04:24:59;;;;;;;37.70;4.68;;;6.40;99.90;;;;;;5115859;27;19916;-65
2024/02/20 04:27:26;;;;;;;40.20;5.20;;;6.30;99.90;;;;;;5121362;27;20061;-64
2024/02/20 04:29:52;;;;;;;40.90;4.60;;;6.20;99.90;;;;;;5119406;27;20074;-64
2024/02/20 04:32:37;;;;;;;36.83;6.95;;;6.20;99.90;;;;;;5119450;27;20046;-65
2024/02/20 04:35:22;;;;;;;49.05;5.32;;;6.20;99.90;;;;;;5119303;27;20050;-64
2024/02/20 04:38:06;;;;;;;41.90;5.30;;;6.10;99.90;;;;;;5119415;27;20038;-66
2024/02/20 04:40:50;;;;;;;38.35;6.03;;;6.20;99.90;;;;;;5117411;27;20034;-65
2024/02/20 04:43:36;;;;;;;34.30;4.78;;;6.10;99.90;;;;;;5115956;27;20119;-65
2024/02/20 04:46:20;;;;;;;39.13;5.00;;;6.10;99.90;;;;;;5113888;27;20465;-65
2024/02/20 04:49:05;;;;;;;33.88;5.57;;;6.10;99.90;;;;;;5118341;27;20098;-66
2024/02/20 04:51:49;;;;;;;37.88;5.03;;;6.20;99.90;;;;;;5118741;27;20122;-65
2024/02/20 04:54:33;;;;;;;42.05;5.88;;;6.30;99.90;;;;;;5112072;27;20373;-66
2024/02/20 04:57:17;;;;;;;40.40;6.30;;;6.20;99.90;;;;;;5114948;27;20042;-64
2024/02/20 05:00:03;;;;;;;35.60;6.35;;;6.20;99.90;;;;;;5111272;27;20108;-66
2024/02/20 05:02:49;;;;;;;36.58;5.70;;;6.40;99.90;;;;;;5104389;27;20042;-66
2024/02/20 05:05:35;;;;;;;38.60;5.47;;;6.30;99.90;;;;;;5110294;27;20089;-66
2024/02/20 05:08:19;;;;;;;31.67;5.32;;;6.40;99.90;;;;;;5109674;27;20138;-65
2024/02/20 05:11:04;;;;;;;43.15;5.18;;;6.40;99.90;;;;;;5120871;27;20050;-65
2024/02/20 05:13:48;;;;;;;42.40;6.22;;;6.40;99.90;;;;;;5115780;27;20050;-66
2024/02/20 05:16:33;;;;;;;37.10;4.88;;;6.40;99.90;;;;;;5113655;27;20700;-65
2024/02/20 05:18:58;;;;;;;35.95;6.18;;;6.40;99.90;;;;;;5120297;27;20043;-66
2024/02/20 05:21:24;;;;;;;31.17;4.63;;;6.50;99.90;;;;;;5114388;27;20042;-66
2024/02/20 05:23:50;;;;;;;47.20;5.35;;;6.40;99.90;;;;;;5110559;27;20045;-63
2024/02/20 05:26:16;;;;;;;45.00;5.38;;;6.40;99.90;;;;;;5112650;27;20035;-65
2024/02/20 05:28:41;;;;;;;36.40;6.63;;;6.50;99.90;;;;;;5120673;27;20043;-66
2024/02/20 05:31:24;;;;;;;40.85;5.97;;;6.60;99.90;;;;;;5119924;27;20054;-64
2024/02/20 05:33:50;;;;;;;39.53;5.43;;;6.60;99.90;;;;;;5119361;27;20495;-64
2024/02/20 05:36:16;;;;;;;37.88;5.28;;;6.60;99.90;;;;;;5128872;27;20082;-65
2024/02/20 05:38:41;;;;;;;39.15;6.40;;;6.50;99.90;;;;;;5119526;27;20352;-66
2024/02/20 05:41:07;;;;;;;37.75;5.00;;;6.50;99.90;;;;;;5121613;27;20050;-64
2024/02/20 05:43:33;;;;;;;40.78;5.47;;;6.60;99.90;;;;;;5116596;27;20051;-64
2024/02/20 05:45:58;;;;;;;39.33;5.32;;;6.60;99.90;;;;;;5110628;27;20039;-65
2024/02/20 05:48:24;;;;;;;39.88;5.65;;;6.50;99.90;;;;;;5111914;27;20049;-64
2024/02/20 05:50:50;;;;;;;46.22;6.38;;;6.60;99.90;;;;;;5109337;27;20421;-65
2024/02/20 05:53:15;;;;;;;37.58;5.07;;;6.60;99.90;;;;;;5111870;27;20058;-65
2024/02/20 05:55:41;;;;;;;36.03;5.82;;;6.60;99.90;;;;;;5114668;27;20043;-66
2024/02/20 05:58:08;;;;;;;40.05;6.10;;;6.60;99.90;;;;;;5126915;27;20042;-64
2024/02/20 06:00:34;;;;;;;34.95;4.82;;;6.70;99.90;;;;;;5129611;27;20038;-65
2024/02/20 06:03:00;;;;;;;43.70;6.40;;;6.60;99.90;;;;;;5125385;27;20027;-64
2024/02/20 06:05:26;;;;;;;44.67;5.63;;;6.70;99.90;;;;;;5127759;27;20107;-65
2024/02/20 06:07:52;;;;;;;47.03;6.63;;;6.70;99.90;;;;;;5126172;27;20461;-65
2024/02/20 06:10:18;;;;;;;41.55;5.28;;;6.70;99.90;;;;;;5126228;27;20039;-65
2024/02/20 06:12:44;;;;;;;40.08;6.53;;;6.80;99.90;;;;;;5122543;27;20468;-65
2024/02/20 06:15:10;;;;;;;38.05;5.30;;;6.90;99.90;;;;;;5126894;27;20496;-66
2024/02/20 06:17:35;;;;;;;43.50;5.25;;;6.80;99.90;;;;;;5131052;27;20062;-66
2024/02/20 06:20:01;;;;;;;47.60;5.55;;;6.90;99.90;;;;;;5125444;27;20066;-65
2024/02/20 06:22:27;;;;;;;39.15;5.43;;;6.90;99.90;;;;;;5123521;27;20043;-65
2024/02/20 06:24:53;;;;;;;35.72;5.28;;;6.80;99.90;;;;;;5128952;27;20039;-66
2024/02/20 06:27:19;;;;;;;39.65;6.28;;;6.80;99.90;;;;;;5127882;27;20049;-65
2024/02/20 06:29:44;;;;;;;36.28;6.28;;;6.80;99.90;;;;;;5130010;27;20035;-65
2024/02/20 06:32:10;;;;;;;34.45;7.00;;;7.00;99.90;;;;;;5127209;27;20718;-66
2024/02/20 06:34:36;;;;;;;41.15;6.20;;;7.00;99.90;;;;;;5128278;27;20375;-65
2024/02/20 06:37:02;;;;;;;33.67;5.45;;;6.80;99.90;;;;;;5127064;27;20665;-66
2024/02/20 06:39:28;;;;;;;33.22;5.53;;;7.00;99.90;;;;;;5126072;27;20091;-65
2024/02/20 06:41:54;;;;;;;48.33;5.57;;;7.00;99.90;;;;;;5124482;27;20402;-65
2024/02/20 06:44:19;;;;;;;38.95;5.70;;;6.90;99.90;;;;;;5127244;27;20497;-66
2024/02/20 06:46:45;;;;;;;42.88;5.63;;;6.90;99.90;;;;;;5126575;27;20023;-66
2024/02/20 06:49:11;;;;;;;46.53;6.85;;;7.00;99.90;;;;;;5125513;27;20042;-65
2024/02/20 06:51:38;;;;;;;45.42;5.53;;;7.10;99.90;;;;;;5123178;27;20369;-65
2024/02/20 06:54:05;;;;;;;38.25;5.53;;;7.00;99.90;;;;;;5129295;27;20069;-66
2024/02/20 06:56:31;;;;;;;37.67;4.93;;;7.00;99.90;;;;;;5127344;27;20105;-66
2024/02/20 06:58:57;;;;;;;44.90;6.72;;;7.20;99.90;;;;;;5128985;27;20031;-65
2024/02/20 07:01:22;;;;;;;39.45;5.88;;;7.20;99.90;;;;;;5126683;27;20035;-65
2024/02/20 07:03:52;;;;;;;40.58;6.07;;;7.10;99.90;;;;;;5127244;27;20155;-66
2024/02/20 07:06:18;;;;;;;39.50;6.35;;;7.10;99.90;;;;;;5126798;27;20046;-66
2024/02/20 07:08:44;;;;;;;46.38;6.15;;;7.10;99.90;;;;;;5128381;27;20043;-66
2024/02/20 07:11:10;;;;;;;35.05;6.20;;;7.20;99.90;;;;;;5128865;27;20478;-66
2024/02/20 07:13:38;;;;;;;40.45;5.90;;;7.20;99.90;;;;;;5129566;27;20478;-65
2024/02/20 07:16:05;;;;;;;34.80;5.13;;;7.20;99.90;;;;;;5125009;27;20059;-66
2024/02/20 07:18:31;;;;;;;35.58;5.50;;;7.20;99.90;;;;;;5123170;27;20507;-65
2024/02/20 07:20:57;;;;;;;55.22;5.65;;;7.20;99.90;;;;;;5126657;27;20549;-66
2024/02/20 07:23:23;;;;;;;39.25;6.03;;;7.20;99.90;;;;;;5128344;27;20038;-66
2024/02/20 07:25:49;;;;;;;41.35;5.80;;;7.30;99.90;;;;;;5126696;27;20117;-65
2024/02/20 07:28:16;;;;;;;34.53;5.07;;;7.30;99.90;;;;;;5131090;27;20311;-65
2024/02/20 07:30:42;;;;;;;36.78;6.20;;;7.40;99.90;;;;;;5129905;27;20514;-66
2024/02/20 07:33:07;;;;;;;52.45;6.70;;;7.30;99.90;;;;;;5131489;27;20446;-64
2024/02/20 07:35:33;;;;;;;30.20;5.28;;;7.30;99.90;;;;;;5128132;27;20079;-65
2024/02/20 07:37:59;;;;;;;37.58;5.75;;;7.50;99.90;;;;;;5128373;27;20096;-64
2024/02/20 07:40:25;;;;;;;43.15;6.05;;;7.50;99.90;;;;;;5131170;27;20033;-64
2024/02/20 07:42:50;;;;;;;37.78;7.28;;;7.50;99.90;;;;;;5124854;27;20672;-64
2024/02/20 07:45:16;;;;;;;40.55;6.00;;;7.50;99.90;;;;;;5130287;27;20065;-63
2024/02/20 07:47:42;;;;;;;30.67;5.20;;;7.40;99.90;;;;;;5132355;27;20063;-64
2024/02/20 07:50:08;;;;;;;45.80;7.53;;;7.50;99.90;;;;;;5129570;27;20196;-63
2024/02/20 07:52:34;;;;;;;42.75;6.18;;;7.60;99.90;;;;;;5131998;27;20099;-63
2024/02/20 07:55:00;;;;;;;39.20;6.68;;;7.60;99.90;;;;;;5128067;27;20039;-64
2024/02/20 07:57:25;;;;;;;41.22;6.28;;;7.50;99.90;;;;;;5128170;27;20042;-64
2024/02/20 07:59:51;;;;;;;35.05;6.78;;;7.70;99.90;;;;;;5126875;27;20091;-64
2024/02/20 08:02:17;;;;;;;41.20;5.72;;;7.70;99.90;;;;;;5130044;27;20058;-65
2024/02/20 08:04:45;;;;;;;39.72;6.22;;;7.70;99.90;;;;;;5131496;27;20156;-64
2024/02/20 08:07:11;;;;;;;43.47;7.03;;;7.70;99.90;;;;;;5128487;27;20046;-63
2024/02/20 08:09:36;;;;;;;38.35;6.47;;;7.70;99.90;;;;;;5129033;27;20689;-64
2024/02/20 08:12:03;;;;;;;44.65;6.22;;;7.70;99.90;;;;;;5125565;27;20138;-63
2024/02/20 08:14:29;;;;;;;42.80;6.60;;;7.80;99.90;;;;;;5128638;27;20035;-63
2024/02/20 08:16:55;;;;;;;43.65;7.15;;;7.80;99.90;;;;;;5127903;27;20382;-64
2024/02/20 08:19:20;;;;;;;42.58;6.03;;;7.80;99.90;;;;;;5128009;27;20031;-64
2024/02/20 08:21:46;;;;;;;43.95;6.80;;;7.80;99.90;;;;;;5127581;27;20042;-63
2024/02/20 08:24:12;;;;;;;53.17;7.53;;;8.00;99.90;;;;;;5127569;27;20039;-63
2024/02/20 08:26:38;;;;;;;46.40;7.18;;;8.00;99.90;;;;;;5126621;27;20034;-64
2024/02/20 08:29:04;;;;;;;44.33;7.22;;;8.10;99.90;;;;;;5129682;27;20046;-63
2024/02/20 08:31:29;;;;;;;45.63;6.97;;;8.10;99.90;;;;;;5132241;27;20041;-63
2024/02/20 08:33:55;;;;;;;32.58;7.47;;;8.10;99.90;;;;;;5130660;27;20517;-63
2024/02/20 08:36:21;;;;;;;43.28;6.78;;;8.20;99.90;;;;;;5128255;27;20050;-63
2024/02/20 08:38:47;;;;;;;39.40;6.22;;;8.20;99.90;;;;;;5130520;27;20039;-65
2024/02/20 08:41:13;;;;;;;43.53;7.75;;;8.20;99.90;;;;;;5131008;27;20313;-64
2024/02/20 08:43:39;;;;;;;40.92;8.35;;;8.20;99.90;;;;;;5125662;27;20386;-65
2024/02/20 08:46:06;;;;;;;51.15;7.85;;;8.30;99.90;;;;;;5128227;27;20477;-64
2024/02/20 08:48:32;;;;;;;52.33;9.02;;;8.40;99.90;;;;;;5122624;27;20035;-64
2024/02/20 08:50:58;;;;;;;48.05;7.07;;;8.50;99.90;;;;;;5131915;27;20130;-65
2024/02/20 08:53:24;;;;;;;43.40;7.32;;;8.50;99.90;;;;;;5128384;27;20552;-64
2024/02/20 08:55:50;;;;;;;35.67;7.55;;;8.70;99.90;;;;;;5131118;27;20035;-64
2024/02/20 08:58:17;;;;;;;42.90;8.48;;;8.70;99.90;;;;;;5128581;27;20035;-64
2024/02/20 09:00:45;;;;;;;37.22;6.93;;;8.70;99.90;;;;;;5130190;27;20123;-64
2024/02/20 09:03:10;;;;;;;47.97;8.65;;;8.80;99.90;;;;;;5127869;27;20130;-65
2024/02/20 09:05:36;;;;;;;38.92;7.32;;;8.90;99.90;;;;;;5133217;27;20467;-64
2024/02/20 09:08:03;;;;;;;49.58;8.98;;;8.90;99.90;;;;;;5131138;27;20043;-64
2024/02/20 09:10:29;;;;;;;43.72;7.88;;;8.90;99.90;;;;;;5129587;27;21150;-64
2024/02/20 09:12:54;;;;;;;49.15;9.75;;;9.00;99.90;;;;;;5130583;27;20030;-64
2024/02/20 09:15:20;;;;;;;57.75;8.95;;;9.00;99.90;;;;;;5130053;27;20523;-63
2024/02/20 09:17:46;;;;;;;52.28;9.10;;;9.10;99.90;;;;;;5129774;27;20033;-64
2024/02/20 09:20:12;;;;;;;39.17;7.82;;;9.20;99.90;;;;;;5130132;27;20045;-63
2024/02/20 09:22:38;;;;;;;45.20;9.05;;;9.20;99.90;;;;;;5128313;27;20116;-63
2024/02/20 09:25:06;;;;;;;48.33;10.20;;;9.20;99.90;;;;;;5127932;27;20043;-64
2024/02/20 09:27:32;;;;;;;40.97;8.82;;;9.30;99.90;;;;;;5127037;27;20047;-63
2024/02/20 09:29:58;;;;;;;42.88;8.90;;;9.30;99.90;;;;;;5127259;27;20046;-65
2024/02/20 09:32:24;;;;;;;43.55;9.25;;;9.30;99.90;;;;;;5127128;27;20216;-63
2024/02/20 09:34:50;;;;;;;39.25;7.43;;;9.20;99.90;;;;;;5130981;27;20135;-65
2024/02/20 09:37:16;;;;;;;37.97;8.45;;;9.20;99.90;;;;;;5123277;27;20485;-64
2024/02/20 09:39:42;;;;;;;49.78;9.73;;;9.30;99.90;;;;;;5129886;27;20482;-63
2024/02/20 09:42:16;;;;;;;49.25;9.93;;;9.30;99.90;;;;;;5128687;27;20037;-65
2024/02/20 09:44:42;;;;;;;53.75;8.55;;;9.30;99.90;;;;;;5127542;27;20489;-64
2024/02/20 09:47:09;;;;;;;47.20;10.30;;;9.30;99.90;;;;;;5123582;27;20046;-63
2024/02/20 09:49:37;;;;;;;45.00;9.35;;;9.20;99.90;;;;;;5125269;27;20453;-64
2024/02/20 09:52:04;;;;;;;34.55;8.25;;;9.30;99.90;;;;;;5129090;27;20042;-64
2024/02/20 09:54:34;;;;;;;38.15;8.57;;;9.20;99.90;;;;;;5127734;27;20140;-64
2024/02/20 09:57:02;;;;;;;43.67;9.55;;;9.30;99.90;;;;;;5131094;27;20035;-65
2024/02/20 09:59:28;;;;;;;53.53;10.85;;;9.30;99.90;;;;;;5125582;27;20066;-65
2024/02/20 10:01:56;;;;;;;47.17;10.40;;;9.30;99.90;;;;;;5130397;27;20035;-64
2024/02/20 10:04:23;;;;;;;50.40;8.97;;;9.30;99.90;;;;;;5126028;27;20515;-64
2024/02/20 10:06:49;;;;;;;37.95;8.48;;;9.30;99.90;;;;;;5126512;27;20576;-65
2024/02/20 10:09:15;;;;;;;43.72;9.13;;;9.30;99.90;;;;;;5126655;27;20024;-63
2024/02/20 10:11:41;;;;;;;39.92;8.20;;;9.30;99.90;;;;;;5127747;27;20038;-63
2024/02/20 10:14:07;;;;;;;38.95;10.00;;;9.40;99.90;;;;;;5128819;27;20123;-65
2024/02/20 10:16:34;;;;;;;34.67;9.20;;;9.30;99.90;;;;;;5129485;27;20046;-64
2024/02/20 10:19:02;;;;;;;40.60;9.55;;;9.40;99.90;;;;;;5127155;27;20039;-63
2024/02/20 10:21:29;;;;;;;39.75;9.20;;;9.50;99.90;;;;;;5131503;27;20043;-65
2024/02/20 10:24:08;;;;;;;42.50;10.32;;;9.50;99.90;;;;;;5125846;27;20512;-64
2024/02/20 10:26:35;;;;;;;35.17;9.68;;;9.60;99.90;;;;;;5124870;27;20038;-64
2024/02/20 10:29:05;;;;;;;55.40;10.70;;;9.60;99.90;;;;;;5125667;27;20415;-65
2024/02/20 10:31:32;;;;;;;54.88;9.98;;;9.70;99.90;;;;;;5128949;27;20537;-65
2024/02/20 10:33:58;;;;;;;53.33;10.23;;;9.60;99.90;;;;;;5127148;27;20036;-65
2024/02/20 10:36:28;;;;;;;35.17;9.57;;;9.70;99.90;;;;;;5126468;27;20626;-64
2024/02/20 10:39:04;;;;;;;47.85;10.13;;;9.80;99.90;;;;;;5126136;27;20074;-63
2024/02/20 10:41:31;;;;;;;37.63;9.95;;;9.80;99.90;;;;;;5125798;27;20056;-65
2024/02/20 10:43:57;;;;;;;45.35;9.25;;;9.70;99.90;;;;;;5127616;27;20074;-65
2024/02/20 10:46:25;;;;;;;41.00;9.18;;;9.80;99.90;;;;;;5128876;27;20122;-64
2024/02/20 10:48:58;;;;;;;43.22;10.30;;;9.80;99.90;;;;;;5127346;27;20035;-65
2024/02/20 10:51:26;;;;;;;34.80;8.70;;;9.80;99.90;;;;;;5128695;27;20464;-65
2024/02/20 10:53:58;;;;;;;44.73;10.43;;;9.90;99.90;;;;;;5122122;27;20082;-64
2024/02/20 10:56:26;;;;;;;48.35;10.40;;;10.00;99.90;;;;;;5125057;27;20035;-66
2024/02/20 10:58:53;;;;;;;39.83;9.52;;;10.10;99.90;;;;;;5130514;27;20625;-63
2024/02/20 11:01:19;;;;;;;38.95;8.68;;;10.20;99.90;;;;;;5126612;27;20087;-65
2024/02/20 11:03:47;;;;;;;39.25;8.68;;;10.30;99.90;;;;;;5130813;27;20501;-65
2024/02/20 11:06:13;;;;;;;36.58;9.45;;;10.40;99.90;;;;;;5123252;27;20039;-64
2024/02/20 11:08:39;;;;;;;37.70;8.40;;;10.50;99.90;;;;;;5130690;27;20126;-63
2024/02/20 11:11:15;;;;;;;36.67;8.63;;;10.50;99.90;;;;;;5124691;27;20039;-63
2024/02/20 11:13:42;;;;;;;43.97;9.30;;;10.60;99.90;;;;;;5133643;27;20042;-63
2024/02/20 11:16:15;;;;;;;34.92;8.10;;;10.60;99.90;;;;;;5131613;27;20394;-64
2024/02/20 11:18:53;;;;;;;39.53;8.60;;;10.60;99.90;;;;;;5124997;27;20426;-65
2024/02/20 11:21:27;;;;;;;38.28;9.02;;;10.50;99.90;;;;;;5132361;27;20031;-63
2024/02/20 11:23:53;;;;;;;41.88;9.48;;;10.40;99.90;;;;;;5128177;27;20034;-63
2024/02/20 11:26:27;;;;;;;36.85;8.48;;;10.50;99.90;;;;;;5128358;27;20113;-63
2024/02/20 11:28:54;;;;;;;39.50;9.77;;;10.50;99.90;;;;;;5130723;27;20041;-63
2024/02/20 11:31:30;;;;;;;37.75;9.80;;;10.50;99.90;;;;;;5130822;27;20553;-63
2024/02/20 11:33:57;;;;;;;39.78;8.48;;;10.70;99.90;;;;;;5128347;27;20497;-64
2024/02/20 11:36:23;;;;;;;30.48;8.90;;;10.80;99.90;;;;;;5131670;27;20528;-63
2024/02/20 11:39:06;;;;;;;39.80;9.05;;;10.80;99.90;;;;;;5131982;27;20040;-63
2024/02/20 11:41:32;;;;;;;39.10;8.95;;;10.90;99.90;;;;;;5130787;27;20141;-63
2024/02/20 11:44:05;;;;;;;28.52;7.97;;;10.90;99.90;;;;;;5131095;27;20045;-64
2024/02/20 11:46:33;;;;;;;37.88;8.40;;;10.90;99.90;;;;;;5128744;27;20083;-63
2024/02/20 11:49:00;;;;;;;30.40;8.07;;;10.90;99.90;;;;;;5132386;27;20548;-63
2024/02/20 11:51:26;;;;;;;36.92;7.53;;;10.80;99.90;;;;;;5131490;27;20075;-62
2024/02/20 11:54:06;;;;;;;38.58;9.30;;;10.70;99.90;;;;;;5129612;27;20095;-63
2024/02/20 11:56:36;;;;;;;53.35;8.90;;;10.70;99.90;;;;;;5128109;27;20050;-63
2024/02/20 11:59:02;;;;;;;28.63;7.07;;;10.70;99.90;;;;;;5133336;27;20039;-63
2024/02/20 12:01:29;;;;;;;35.33;7.38;;;10.70;99.90;;;;;;5131271;27;20063;-63
2024/02/20 12:03:56;;;;;;;28.80;7.28;;;10.70;99.90;;;;;;5131726;27;20027;-63
2024/02/20 12:06:27;;;;;;;34.95;7.75;;;10.60;99.90;;;;;;5131257;27;20034;-63
2024/02/20 12:08:55;;;;;;;35.58;7.75;;;10.70;99.90;;;;;;5131223;27;20149;-63
2024/02/20 12:11:26;;;;;;;37.47;7.65;;;10.60;99.90;;;;;;5129109;27;20070;-63
2024/02/20 12:13:53;;;;;;;38.42;7.93;;;10.60;99.90;;;;;;5130437;27;20043;-64
2024/02/20 12:16:22;;;;;;;28.48;7.10;;;10.60;99.90;;;;;;5131445;27;20122;-62
2024/02/20 12:18:49;;;;;;;37.40;7.65;;;10.60;99.90;;;;;;5132089;27;20035;-64
2024/02/20 12:21:15;;;;;;;38.33;7.00;;;10.60;99.90;;;;;;5134590;27;20039;-62
2024/02/20 12:23:50;;;;;;;31.27;5.20;;;10.60;99.90;;;;;;5125957;27;20073;-63
2024/02/20 12:26:18;;;;;;;36.97;6.70;;;10.60;99.90;;;;;;5129992;27;20038;-63
2024/02/20 12:28:46;;;;;;;38.17;7.10;;;10.70;99.90;;;;;;5129321;27;20712;-63
2024/02/20 12:31:17;;;;;;;40.05;7.85;;;10.70;99.90;;;;;;5127205;27;20353;-64
2024/02/20 12:33:43;;;;;;;39.05;6.75;;;10.70;99.90;;;;;;5129859;27;20042;-63
2024/02/20 12:36:09;;;;;;;35.08;6.82;;;10.70;99.90;;;;;;5128953;27;20049;-63
2024/02/20 12:38:35;;;;;;;30.23;5.90;;;10.70;99.90;;;;;;5127657;27;20031;-63
2024/02/20 12:41:01;;;;;;;29.10;5.13;;;10.70;99.90;;;;;;5125829;27;20385;-63
2024/02/20 12:43:27;;;;;;;27.10;5.43;;;10.70;99.90;;;;;;5127643;27;20043;-63
2024/02/20 12:45:53;;;;;;;26.98;6.38;;;10.80;99.90;;;;;;5132506;27;20426;-63
2024/02/20 12:48:19;;;;;;;27.33;5.50;;;10.80;99.90;;;;;;5123491;27;20054;-63